Time;durP1;ratioP1;P1;durP2;ratioP2;P2;SDS_P1;SDS_P2;PMS_P1;PMS_P2;Temp;Humidity;BMP_temperature;BMP_pressure;BME280_temperature;BME280_humidity;BME280_pressure;Samples;Min_cycle;Max_cycle;Signal;HPM_P1;HPM_P2
2021/07/23 00:00:18;;;;;;;10.35;6.20;;;15.20;99.90;;;;;;5063278;28;20087;-77
2021/07/23 00:02:44;;;;;;;12.20;6.50;;;15.30;99.90;;;;;;5064015;28;20170;-77
2021/07/23 00:05:10;;;;;;;6.15;5.55;;;15.30;99.90;;;;;;5063834;28;20127;-77
2021/07/23 00:07:36;;;;;;;8.18;5.65;;;15.40;99.90;;;;;;5063391;28;20032;-77
2021/07/23 00:10:02;;;;;;;5.95;5.25;;;15.40;99.90;;;;;;5063734;28;20044;-77
2021/07/23 00:12:28;;;;;;;6.90;5.32;;;15.40;99.90;;;;;;5063248;28;20060;-76
2021/07/23 00:14:54;;;;;;;7.50;6.07;;;15.50;99.90;;;;;;5063280;28;20033;-77
2021/07/23 00:17:20;;;;;;;8.00;6.03;;;15.50;99.90;;;;;;5062806;28;20085;-76
2021/07/23 00:19:46;;;;;;;8.15;6.80;;;15.50;99.90;;;;;;5064105;28;20040;-77
2021/07/23 00:22:12;;;;;;;7.78;6.15;;;15.50;99.90;;;;;;5063594;28;20587;-77
2021/07/23 00:24:37;;;;;;;7.38;6.25;;;15.50;99.90;;;;;;5063436;28;20482;-77
2021/07/23 00:27:03;;;;;;;8.32;6.60;;;15.50;99.90;;;;;;5064357;28;20486;-77
2021/07/23 00:29:29;;;;;;;7.45;5.40;;;15.50;99.90;;;;;;5064541;28;20039;-77
2021/07/23 00:31:54;;;;;;;8.07;6.55;;;15.50;99.90;;;;;;5063874;28;20045;-76
2021/07/23 00:34:20;;;;;;;6.43;5.82;;;15.50;99.90;;;;;;5062987;28;20139;-76
2021/07/23 00:36:45;;;;;;;7.90;7.10;;;15.50;99.90;;;;;;5066727;28;20070;-76
2021/07/23 00:39:11;;;;;;;11.23;8.23;;;15.60;99.90;;;;;;5066368;28;20075;-76
2021/07/23 00:41:37;;;;;;;8.35;7.05;;;15.60;99.90;;;;;;5066963;28;20032;-76
2021/07/23 00:44:03;;;;;;;8.57;7.68;;;15.50;99.90;;;;;;5066217;28;20504;-76
2021/07/23 00:46:32;;;;;;;10.15;7.88;;;15.50;99.90;;;;;;5066625;28;20051;-76
2021/07/23 00:48:59;;;;;;;8.13;7.32;;;15.50;99.90;;;;;;5065908;28;20036;-76
2021/07/23 00:51:25;;;;;;;8.80;7.93;;;15.60;99.90;;;;;;5065946;28;20037;-76
2021/07/23 00:53:51;;;;;;;8.43;7.65;;;15.60;99.90;;;;;;5066564;28;20086;-76
2021/07/23 00:56:18;;;;;;;8.80;7.53;;;15.60;99.90;;;;;;5064952;28;20033;-76
2021/07/23 00:58:43;;;;;;;13.43;8.25;;;15.60;99.90;;;;;;5066813;28;20082;-76
2021/07/23 01:01:09;;;;;;;9.80;8.20;;;15.60;99.90;;;;;;5066775;28;20033;-76
2021/07/23 01:03:36;;;;;;;10.55;7.90;;;15.60;99.90;;;;;;5065340;28;20052;-76
2021/07/23 01:06:02;;;;;;;8.35;7.55;;;15.60;99.90;;;;;;5065671;28;20375;-76
2021/07/23 01:08:28;;;;;;;11.27;9.55;;;15.60;99.90;;;;;;5065937;28;20093;-76
2021/07/23 01:10:54;;;;;;;8.05;7.25;;;15.60;99.90;;;;;;5067463;28;20098;-76
2021/07/23 01:13:20;;;;;;;9.52;8.48;;;15.60;99.90;;;;;;5066101;28;20037;-77
2021/07/23 01:15:46;;;;;;;9.48;8.32;;;15.70;99.90;;;;;;5066375;28;20041;-76
2021/07/23 01:18:12;;;;;;;8.82;7.95;;;15.70;99.90;;;;;;5065187;28;20098;-76
2021/07/23 01:20:39;;;;;;;9.05;8.13;;;15.70;99.90;;;;;;5067314;28;20490;-76
2021/07/23 01:23:07;;;;;;;10.02;8.70;;;15.70;99.90;;;;;;5065149;28;20098;-76
2021/07/23 01:25:34;;;;;;;12.05;8.07;;;15.70;99.90;;;;;;5066915;28;20049;-76
2021/07/23 01:28:02;;;;;;;10.63;8.20;;;15.90;99.90;;;;;;5064622;28;20115;-76
2021/07/23 01:30:27;;;;;;;9.15;8.25;;;15.70;99.90;;;;;;5065873;28;20430;-76
2021/07/23 01:32:53;;;;;;;9.80;7.95;;;15.80;99.90;;;;;;5066499;28;20048;-76
2021/07/23 01:35:20;;;;;;;8.98;8.10;;;15.80;99.90;;;;;;5065556;28;20042;-77
2021/07/23 01:37:47;;;;;;;9.68;8.40;;;15.80;99.90;;;;;;5066636;28;20064;-76
2021/07/23 01:40:14;;;;;;;12.02;8.30;;;15.80;99.90;;;;;;5066018;28;20486;-76
2021/07/23 01:42:40;;;;;;;10.27;8.88;;;15.80;99.90;;;;;;5065167;28;20482;-76
2021/07/23 01:45:08;;;;;;;10.07;9.05;;;15.80;99.90;;;;;;5065110;28;20040;-76
2021/07/23 01:47:33;;;;;;;10.30;8.80;;;15.70;99.90;;;;;;5063945;28;20715;-76
2021/07/23 01:49:59;;;;;;;12.75;9.10;;;15.70;99.90;;;;;;5065762;28;20038;-76
2021/07/23 01:52:25;;;;;;;9.50;8.60;;;15.70;99.90;;;;;;5064892;28;20040;-76
2021/07/23 01:54:51;;;;;;;10.57;8.45;;;15.70;99.90;;;;;;5065581;28;20058;-77
2021/07/23 01:57:17;;;;;;;12.05;9.00;;;15.70;99.90;;;;;;5066186;28;20036;-76
2021/07/23 01:59:43;;;;;;;10.20;9.20;;;15.70;99.90;;;;;;5065773;28;20035;-76
2021/07/23 02:02:08;;;;;;;12.35;9.15;;;15.70;99.90;;;;;;5065692;28;20449;-76
2021/07/23 02:04:34;;;;;;;10.43;9.13;;;15.70;99.90;;;;;;5065467;28;20163;-76
2021/07/23 02:07:00;;;;;;;13.18;8.80;;;15.60;99.90;;;;;;5064450;28;20483;-76
2021/07/23 02:09:32;;;;;;;10.23;9.30;;;15.70;99.90;;;;;;5063617;28;20475;-76
2021/07/23 02:11:58;;;;;;;11.25;9.40;;;15.70;99.90;;;;;;5065945;28;20041;-76
2021/07/23 02:14:28;;;;;;;11.23;9.32;;;15.60;99.90;;;;;;5064264;28;20097;-76
2021/07/23 02:16:54;;;;;;;11.07;8.82;;;15.70;99.90;;;;;;5065102;28;20033;-76
2021/07/23 02:19:20;;;;;;;13.40;8.70;;;15.70;99.90;;;;;;5066510;28;20044;-76
2021/07/23 02:21:46;;;;;;;11.00;9.48;;;15.70;99.90;;;;;;5065088;28;20056;-76
2021/07/23 02:24:12;;;;;;;11.60;9.55;;;15.70;99.90;;;;;;5062705;28;20504;-76
2021/07/23 02:26:37;;;;;;;11.77;9.30;;;15.80;99.90;;;;;;5065942;28;20120;-77
2021/07/23 02:29:03;;;;;;;10.20;9.20;;;15.80;99.90;;;;;;5067683;28;20041;-77
2021/07/23 02:31:29;;;;;;;12.00;9.13;;;15.80;99.90;;;;;;5068307;28;20032;-76
2021/07/23 02:33:54;;;;;;;9.65;8.77;;;15.80;99.90;;;;;;5067768;28;20036;-76
2021/07/23 02:36:20;;;;;;;11.52;10.00;;;15.80;99.90;;;;;;5067044;28;20470;-77
2021/07/23 02:38:46;;;;;;;9.95;8.90;;;15.80;99.90;;;;;;5065463;28;20064;-77
2021/07/23 02:41:12;;;;;;;10.25;9.13;;;15.80;99.90;;;;;;5069156;28;20373;-76
2021/07/23 02:43:37;;;;;;;10.80;9.70;;;15.80;99.90;;;;;;5065894;28;20047;-77
2021/07/23 02:46:03;;;;;;;10.50;9.40;;;15.90;99.90;;;;;;5069540;28;20041;-77
2021/07/23 02:48:29;;;;;;;11.80;9.25;;;15.90;99.90;;;;;;5069028;28;20040;-76
2021/07/23 02:50:55;;;;;;;12.07;8.80;;;15.90;99.90;;;;;;5069067;28;20485;-77
2021/07/23 02:53:22;;;;;;;14.95;9.50;;;15.90;99.90;;;;;;5067448;28;20064;-77
2021/07/23 02:55:53;;;;;;;13.73;9.35;;;15.90;99.90;;;;;;5066973;28;20032;-77
2021/07/23 02:58:19;;;;;;;10.52;8.60;;;16.00;99.90;;;;;;5067571;28;20393;-76
2021/07/23 03:00:45;;;;;;;13.80;9.98;;;16.00;99.90;;;;;;5068813;28;20046;-76
2021/07/23 03:03:11;;;;;;;13.18;9.10;;;16.10;99.90;;;;;;5068956;28;20036;-76
2021/07/23 03:05:37;;;;;;;12.05;9.23;;;16.10;99.90;;;;;;5064785;28;20090;-77
2021/07/23 03:08:03;;;;;;;11.27;8.65;;;16.10;99.90;;;;;;5069667;28;20029;-77
2021/07/23 03:10:28;;;;;;;12.02;9.05;;;16.10;99.90;;;;;;5067702;28;20037;-77
2021/07/23 03:12:54;;;;;;;14.05;9.35;;;16.10;99.90;;;;;;5069077;28;20032;-77
2021/07/23 03:15:19;;;;;;;12.18;9.68;;;16.10;99.90;;;;;;5067529;28;20037;-77
2021/07/23 03:17:45;;;;;;;11.10;9.48;;;16.10;99.90;;;;;;5067909;28;20111;-77
2021/07/23 03:20:12;;;;;;;9.80;8.75;;;16.10;99.90;;;;;;5068107;28;20036;-77
2021/07/23 03:22:39;;;;;;;10.40;9.27;;;16.10;99.90;;;;;;5066197;28;20498;-76
2021/07/23 03:25:05;;;;;;;11.38;8.48;;;16.20;99.90;;;;;;5067774;28;20028;-76
2021/07/23 03:27:30;;;;;;;11.23;8.38;;;16.20;99.90;;;;;;5067867;28;20051;-76
2021/07/23 03:29:56;;;;;;;11.70;9.48;;;16.20;99.90;;;;;;5067548;28;20036;-76
2021/07/23 03:32:22;;;;;;;12.65;8.60;;;16.20;99.90;;;;;;5067276;28;20103;-76
2021/07/23 03:34:47;;;;;;;10.88;7.88;;;16.20;99.90;;;;;;5067381;28;20758;-76
2021/07/23 03:37:13;;;;;;;13.80;8.73;;;16.20;99.90;;;;;;5063877;28;20033;-76
2021/07/23 03:39:38;;;;;;;9.70;8.63;;;16.20;99.90;;;;;;5067386;28;20036;-76
2021/07/23 03:42:04;;;;;;;12.73;8.50;;;16.20;99.90;;;;;;5068608;28;20041;-76
2021/07/23 03:44:30;;;;;;;20.27;9.40;;;16.20;99.90;;;;;;5068043;28;20036;-76
2021/07/23 03:46:58;;;;;;;19.30;7.90;;;16.20;99.90;;;;;;5068340;28;20029;-76
2021/07/23 03:49:24;;;;;;;12.35;8.85;;;16.20;99.90;;;;;;5065343;28;20047;-76
2021/07/23 03:51:50;;;;;;;15.48;8.10;;;16.20;99.90;;;;;;5067540;28;20044;-77
2021/07/23 03:54:15;;;;;;;10.27;8.07;;;16.20;99.90;;;;;;5067012;28;20043;-77
2021/07/23 03:56:41;;;;;;;12.63;8.07;;;16.20;99.90;;;;;;5067595;28;20050;-77
2021/07/23 03:59:07;;;;;;;10.35;7.63;;;16.30;99.90;;;;;;5065316;28;20040;-77
2021/07/23 04:01:32;;;;;;;11.45;7.70;;;16.30;99.90;;;;;;5064982;28;20051;-76
2021/07/23 04:03:58;;;;;;;9.25;8.32;;;16.30;99.90;;;;;;5067216;28;20032;-76
2021/07/23 04:06:26;;;;;;;9.23;8.32;;;16.30;99.90;;;;;;5065536;28;20350;-76
2021/07/23 04:08:54;;;;;;;9.90;7.75;;;16.30;99.90;;;;;;5067670;28;20543;-77
2021/07/23 04:11:26;;;;;;;8.63;7.65;;;16.20;99.90;;;;;;5069304;28;20040;-76
2021/07/23 04:13:52;;;;;;;8.57;7.55;;;16.30;99.90;;;;;;5071213;28;20111;-76
2021/07/23 04:16:17;;;;;;;12.60;7.75;;;16.30;99.90;;;;;;5069086;28;20490;-76
2021/07/23 04:18:43;;;;;;;9.85;8.30;;;16.20;99.90;;;;;;5070252;28;20505;-77
2021/07/23 04:21:09;;;;;;;8.73;7.78;;;16.30;99.90;;;;;;5070571;28;20036;-76
2021/07/23 04:23:35;;;;;;;11.25;7.20;;;16.30;99.90;;;;;;5070319;28;20032;-76
2021/07/23 04:26:01;;;;;;;11.68;7.22;;;16.30;99.90;;;;;;5071829;28;20437;-76
2021/07/23 04:28:28;;;;;;;8.75;7.25;;;16.30;99.90;;;;;;5070159;28;20128;-76
2021/07/23 04:30:54;;;;;;;11.95;7.60;;;16.30;99.90;;;;;;5071163;28;20036;-77
2021/07/23 04:33:20;;;;;;;10.35;7.38;;;16.30;99.90;;;;;;5071244;28;20068;-77
2021/07/23 04:35:45;;;;;;;8.50;7.05;;;16.30;99.90;;;;;;5070796;28;20059;-77
2021/07/23 04:38:11;;;;;;;14.02;7.78;;;16.30;99.90;;;;;;5070179;28;20636;-77
2021/07/23 04:40:37;;;;;;;9.77;6.72;;;16.40;99.90;;;;;;5070190;28;20036;-77
2021/07/23 04:43:02;;;;;;;12.13;6.22;;;16.30;99.90;;;;;;5071442;28;20032;-77
2021/07/23 04:45:28;;;;;;;8.85;6.80;;;16.30;99.90;;;;;;5071320;28;20139;-77
2021/07/23 04:47:54;;;;;;;9.25;5.78;;;16.30;99.90;;;;;;5070301;28;20478;-77
2021/07/23 04:50:20;;;;;;;7.28;5.40;;;16.30;99.90;;;;;;5068835;28;20094;-77
2021/07/23 04:52:45;;;;;;;7.28;6.40;;;16.40;99.90;;;;;;5070808;28;20037;-77
2021/07/23 04:55:12;;;;;;;12.00;6.00;;;16.40;99.90;;;;;;5071048;28;20275;-77
2021/07/23 04:57:44;;;;;;;10.40;6.45;;;16.40;99.90;;;;;;5071133;28;20078;-77
2021/07/23 05:00:10;;;;;;;11.20;6.20;;;16.40;99.90;;;;;;5070474;28;20040;-77
2021/07/23 05:02:37;;;;;;;10.55;6.32;;;16.40;99.90;;;;;;5070560;28;20420;-77
2021/07/23 05:05:03;;;;;;;9.95;6.45;;;16.40;99.90;;;;;;5069533;28;20076;-77
2021/07/23 05:07:29;;;;;;;7.40;6.32;;;16.40;99.90;;;;;;5067651;28;20033;-77
2021/07/23 05:09:54;;;;;;;8.50;4.97;;;16.50;99.90;;;;;;5069693;28;20044;-77
2021/07/23 05:12:20;;;;;;;11.57;6.10;;;16.50;99.90;;;;;;5068025;28;20414;-77
2021/07/23 05:14:46;;;;;;;6.82;6.13;;;16.40;99.90;;;;;;5069668;28;20838;-77
2021/07/23 05:17:12;;;;;;;10.77;6.38;;;16.50;99.90;;;;;;5068982;28;20375;-77
2021/07/23 05:19:40;;;;;;;11.75;6.25;;;16.50;99.90;;;;;;5069998;28;20040;-77
2021/07/23 05:22:06;;;;;;;10.23;5.97;;;16.50;99.90;;;;;;5069091;28;20111;-77
2021/07/23 05:24:33;;;;;;;12.90;7.22;;;16.50;99.90;;;;;;5066212;28;20817;-77
2021/07/23 05:26:59;;;;;;;11.10;6.88;;;16.50;99.90;;;;;;5064345;28;20052;-77
2021/07/23 05:29:25;;;;;;;8.73;6.55;;;16.50;99.90;;;;;;5065250;28;20045;-77
2021/07/23 05:31:50;;;;;;;10.75;6.63;;;16.50;99.90;;;;;;5065703;28;20047;-77
2021/07/23 05:34:16;;;;;;;10.70;6.20;;;16.60;99.90;;;;;;5065409;28;20037;-77
2021/07/23 05:36:43;;;;;;;13.45;6.63;;;16.60;99.90;;;;;;5064603;28;20111;-77
2021/07/23 05:39:09;;;;;;;11.48;6.60;;;16.60;99.90;;;;;;5065258;28;20545;-77
2021/07/23 05:41:34;;;;;;;13.25;5.95;;;16.60;99.90;;;;;;5064774;28;20680;-76
2021/07/23 05:44:01;;;;;;;12.85;5.78;;;16.70;99.90;;;;;;5065081;28;20555;-77
2021/07/23 05:46:27;;;;;;;10.55;5.63;;;16.70;99.90;;;;;;5064638;28;20121;-77
2021/07/23 05:48:52;;;;;;;10.02;5.40;;;16.70;99.90;;;;;;5063504;28;20072;-77
2021/07/23 05:51:18;;;;;;;8.85;5.25;;;16.80;99.90;;;;;;5065767;28;20473;-77
2021/07/23 05:53:44;;;;;;;9.23;5.63;;;16.70;99.90;;;;;;5066066;28;20126;-77
2021/07/23 05:56:09;;;;;;;12.52;6.40;;;16.70;99.90;;;;;;5064200;28;20043;-77
2021/07/23 05:58:35;;;;;;;9.88;5.90;;;16.70;99.90;;;;;;5064619;28;20414;-77
2021/07/23 06:01:05;;;;;;;9.48;6.75;;;16.80;99.90;;;;;;5064851;28;20093;-77
2021/07/23 06:03:31;;;;;;;9.00;6.28;;;16.80;99.90;;;;;;5065711;28;20387;-77
2021/07/23 06:05:57;;;;;;;9.05;6.72;;;16.80;99.90;;;;;;5065039;28;20040;-77
2021/07/23 06:08:23;;;;;;;7.32;5.43;;;16.80;99.90;;;;;;5065095;28;20032;-77
2021/07/23 06:10:48;;;;;;;8.52;4.93;;;16.70;99.90;;;;;;5064386;28;20045;-77
2021/07/23 06:13:14;;;;;;;8.27;6.05;;;16.80;99.90;;;;;;5065629;28;20214;-77
2021/07/23 06:15:40;;;;;;;8.40;5.28;;;16.80;99.90;;;;;;5064222;28;21516;-77
2021/07/23 06:18:05;;;;;;;11.95;5.25;;;16.80;99.90;;;;;;5066192;28;20036;-77
2021/07/23 06:20:31;;;;;;;7.03;5.88;;;16.90;99.90;;;;;;5061649;28;20427;-77
2021/07/23 06:22:57;;;;;;;12.00;5.72;;;16.90;99.90;;;;;;5063745;28;20439;-77
2021/07/23 06:25:24;;;;;;;9.15;6.00;;;16.90;99.90;;;;;;5063384;28;20048;-77
2021/07/23 06:27:50;;;;;;;13.68;7.57;;;17.00;99.90;;;;;;5065541;28;20044;-77
2021/07/23 06:30:16;;;;;;;8.88;7.25;;;17.00;99.90;;;;;;5064225;28;20033;-77
2021/07/23 06:32:42;;;;;;;7.40;5.82;;;17.00;99.90;;;;;;5068373;28;20053;-77
2021/07/23 06:35:08;;;;;;;8.40;7.25;;;17.00;99.90;;;;;;5067032;28;20441;-77
2021/07/23 06:37:34;;;;;;;7.93;6.93;;;17.00;99.90;;;;;;5066027;28;20066;-77
2021/07/23 06:40:00;;;;;;;11.98;7.13;;;17.00;99.90;;;;;;5061727;28;20044;-77
2021/07/23 06:42:25;;;;;;;15.30;6.88;;;17.00;99.90;;;;;;5063907;28;20535;-77
2021/07/23 06:44:52;;;;;;;10.20;6.15;;;17.00;99.90;;;;;;5061439;28;20589;-77
2021/07/23 06:47:20;;;;;;;9.10;6.88;;;17.00;99.90;;;;;;5061510;28;20032;-78
2021/07/23 06:49:48;;;;;;;14.20;7.22;;;17.00;99.90;;;;;;5061406;28;20056;-77
2021/07/23 06:52:14;;;;;;;13.43;7.55;;;17.10;99.90;;;;;;5062387;28;20051;-78
2021/07/23 06:54:39;;;;;;;10.55;6.35;;;17.10;99.90;;;;;;5063821;28;20738;-77
2021/07/23 06:57:05;;;;;;;9.50;6.38;;;17.10;99.90;;;;;;5062475;28;20045;-77
2021/07/23 06:59:34;;;;;;;9.23;7.55;;;17.10;99.90;;;;;;5064172;28;20035;-78
2021/07/23 07:02:04;;;;;;;9.85;6.57;;;17.20;99.90;;;;;;5062697;28;20047;-77
2021/07/23 07:04:30;;;;;;;13.95;7.82;;;17.20;99.90;;;;;;5063761;28;20045;-77
2021/07/23 07:06:56;;;;;;;10.88;6.82;;;17.20;99.90;;;;;;5063448;28;20037;-77
2021/07/23 07:09:27;;;;;;;8.80;6.90;;;17.20;99.90;;;;;;5061470;28;20040;-77
2021/07/23 07:11:57;;;;;;;9.85;7.65;;;17.20;99.90;;;;;;5064046;28;20075;-77
2021/07/23 07:14:23;;;;;;;8.65;7.78;;;17.30;99.90;;;;;;5062642;28;20083;-77
2021/07/23 07:16:49;;;;;;;9.00;7.90;;;17.30;99.90;;;;;;5062826;28;20047;-77
2021/07/23 07:19:14;;;;;;;12.52;9.63;;;17.40;99.90;;;;;;5062332;28;20045;-77
2021/07/23 07:21:47;;;;;;;10.80;8.65;;;17.40;99.90;;;;;;5060845;28;20090;-77
2021/07/23 07:24:14;;;;;;;11.55;8.65;;;17.40;99.90;;;;;;5063023;28;20028;-77
2021/07/23 07:26:40;;;;;;;9.75;8.15;;;17.40;99.90;;;;;;5062001;28;20101;-77
2021/07/23 07:29:05;;;;;;;10.50;9.30;;;17.40;99.90;;;;;;5062578;28;20077;-77
2021/07/23 07:31:31;;;;;;;18.10;10.05;;;17.40;99.90;;;;;;5072680;28;20544;-77
2021/07/23 07:33:57;;;;;;;12.65;11.20;;;17.50;99.90;;;;;;5062176;28;20059;-77
2021/07/23 07:36:22;;;;;;;12.00;9.85;;;17.50;99.90;;;;;;5061703;28;20036;-77
2021/07/23 07:38:48;;;;;;;12.38;9.73;;;17.50;99.90;;;;;;5063527;28;20041;-77
2021/07/23 07:41:18;;;;;;;11.75;10.55;;;17.40;99.90;;;;;;5061424;28;20036;-77
2021/07/23 07:43:44;;;;;;;14.20;9.68;;;17.40;99.90;;;;;;5060015;28;20491;-77
2021/07/23 07:46:10;;;;;;;11.48;10.32;;;17.40;99.90;;;;;;5062524;28;20051;-77
2021/07/23 07:48:36;;;;;;;12.18;10.80;;;17.40;99.90;;;;;;5063293;28;20414;-77
2021/07/23 07:51:01;;;;;;;12.02;10.70;;;17.40;99.90;;;;;;5063283;28;20036;-72
2021/07/23 07:53:27;;;;;;;10.50;9.60;;;17.50;99.90;;;;;;5065897;28;20041;-76
2021/07/23 07:55:52;;;;;;;12.25;10.98;;;17.50;99.90;;;;;;5064938;28;20830;-77
2021/07/23 07:58:18;;;;;;;12.45;9.55;;;17.50;99.90;;;;;;5064258;28;20486;-77
2021/07/23 08:00:44;;;;;;;12.02;10.82;;;17.50;99.90;;;;;;5063556;28;20604;-77
2021/07/23 08:03:10;;;;;;;12.95;11.27;;;17.50;99.90;;;;;;5065223;28;20046;-78
2021/07/23 08:05:36;;;;;;;11.70;10.38;;;17.50;99.90;;;;;;5063382;28;20119;-77
2021/07/23 08:08:04;;;;;;;12.02;10.63;;;17.50;99.90;;;;;;5064591;28;20032;-77
2021/07/23 08:10:33;;;;;;;15.57;10.02;;;17.60;99.90;;;;;;5063628;28;20116;-77
2021/07/23 08:12:58;;;;;;;12.70;10.23;;;17.60;99.90;;;;;;5044909;28;20569;-77
2021/07/23 08:15:25;;;;;;;11.57;10.40;;;17.60;99.90;;;;;;5069761;28;20067;-76
2021/07/23 08:17:51;;;;;;;11.30;10.10;;;17.60;99.90;;;;;;5068698;28;20051;-77
2021/07/23 08:20:17;;;;;;;15.23;11.05;;;17.60;99.90;;;;;;5062516;28;20037;-77
2021/07/23 08:22:43;;;;;;;14.43;10.20;;;17.60;99.90;;;;;;5063936;28;20201;-80
2021/07/23 08:25:09;;;;;;;12.30;10.45;;;17.70;99.90;;;;;;5064833;28;20536;-80
2021/07/23 08:27:35;;;;;;;12.65;10.77;;;17.60;99.90;;;;;;5065302;28;20764;-80
2021/07/23 08:30:02;;;;;;;16.23;11.43;;;17.70;99.90;;;;;;5062239;28;20032;-80
2021/07/23 08:32:31;;;;;;;13.80;10.85;;;17.70;99.90;;;;;;5064031;28;20048;-80
2021/07/23 08:34:57;;;;;;;13.80;11.05;;;17.70;99.90;;;;;;5061744;28;20044;-78
2021/07/23 08:37:23;;;;;;;13.15;11.85;;;17.70;99.90;;;;;;5061249;28;20041;-80
2021/07/23 08:39:49;;;;;;;12.00;10.80;;;17.60;99.90;;;;;;5062480;28;20651;-76
2021/07/23 08:42:28;;;;;;;11.95;10.23;;;17.70;99.90;;;;;;5026118;28;1033591;-75
2021/07/23 08:44:55;;;;;;;14.77;10.18;;;17.70;99.90;;;;;;5061436;28;20495;-75
2021/07/23 08:47:21;;;;;;;13.13;11.45;;;17.70;99.90;;;;;;5064678;28;20040;-75
2021/07/23 08:49:47;;;;;;;12.75;10.43;;;17.70;99.90;;;;;;5066084;28;20076;-75
2021/07/23 08:52:13;;;;;;;14.13;10.07;;;17.80;99.90;;;;;;5066600;28;20033;-75
2021/07/23 08:54:39;;;;;;;12.05;10.00;;;17.80;99.90;;;;;;5066112;28;20052;-75
2021/07/23 08:57:09;;;;;;;12.02;10.10;;;17.80;99.90;;;;;;5064885;28;20487;-75
2021/07/23 08:59:35;;;;;;;11.52;10.32;;;17.80;99.90;;;;;;5064778;28;20038;-75
2021/07/23 09:02:05;;;;;;;9.77;8.65;;;17.80;99.90;;;;;;5066372;28;20051;-75
2021/07/23 09:04:34;;;;;;;9.70;8.63;;;17.70;99.90;;;;;;5064324;28;20040;-75
2021/07/23 09:07:26;;;;;;;11.82;9.35;;;17.80;99.90;;;;;;5065658;28;20047;-75
2021/07/23 09:09:57;;;;;;;9.90;9.00;;;17.80;99.90;;;;;;5064468;28;20059;-75
2021/07/23 09:12:23;;;;;;;9.27;7.45;;;17.90;99.90;;;;;;5065960;28;20103;-75
2021/07/23 09:14:49;;;;;;;10.25;8.25;;;18.10;99.90;;;;;;5064520;28;20479;-75
2021/07/23 09:17:15;;;;;;;12.13;8.65;;;18.10;99.90;;;;;;5066290;28;20032;-75
2021/07/23 09:19:40;;;;;;;9.18;8.27;;;18.20;99.90;;;;;;5066655;28;20119;-75
2021/07/23 09:22:06;;;;;;;10.65;8.15;;;18.30;99.90;;;;;;5064885;28;20063;-75
2021/07/23 09:24:51;;;;;;;8.68;7.88;;;18.40;99.90;;;;;;5063010;28;20090;-75
2021/07/23 09:27:33;;;;;;;10.13;8.90;;;18.60;99.90;;;;;;5064008;28;20040;-75
2021/07/23 09:30:01;;;;;;;13.32;10.48;;;18.70;99.90;;;;;;5064051;28;20044;-74
2021/07/23 09:32:28;;;;;;;11.05;9.80;;;18.80;99.90;;;;;;5062994;28;20048;-74
2021/07/23 09:35:07;;;;;;;9.23;8.30;;;18.80;99.90;;;;;;5063171;28;20425;-75
2021/07/23 09:37:47;;;;;;;10.00;7.80;;;18.90;99.90;;;;;;5065235;28;20037;-75
2021/07/23 09:40:13;;;;;;;12.88;8.85;;;19.00;99.90;;;;;;5064164;28;20119;-75
2021/07/23 09:42:39;;;;;;;8.48;7.68;;;19.10;99.90;;;;;;5064692;28;20131;-75
2021/07/23 09:45:05;;;;;;;10.90;8.45;;;19.20;99.90;;;;;;5064771;28;20518;-75
2021/07/23 09:47:31;;;;;;;9.68;7.70;;;19.30;99.90;;;;;;5063515;28;20029;-75
2021/07/23 09:49:58;;;;;;;9.95;7.45;;;19.30;99.90;;;;;;5061933;28;20064;-75
2021/07/23 09:52:24;;;;;;;9.15;7.35;;;19.40;99.90;;;;;;5064128;28;20440;-74
2021/07/23 09:54:49;;;;;;;7.63;6.93;;;19.50;99.90;;;;;;5064608;28;20700;-74
2021/07/23 09:57:17;;;;;;;8.48;7.45;;;19.60;99.90;;;;;;5063529;28;20115;-75
2021/07/23 09:59:56;;;;;;;10.43;8.75;;;19.60;99.90;;;;;;5063456;28;20040;-75
2021/07/23 10:02:23;;;;;;;11.27;8.10;;;19.60;99.90;;;;;;5064453;28;20052;-75
2021/07/23 10:05:02;;;;;;;10.07;8.52;;;19.70;99.90;;;;;;5063548;28;20124;-75
2021/07/23 10:07:35;;;;;;;9.27;8.38;;;19.70;99.90;;;;;;5063547;28;20056;-75
2021/07/23 10:10:01;;;;;;;11.23;8.90;;;19.80;99.90;;;;;;5062983;28;20547;-74
2021/07/23 10:12:27;;;;;;;9.45;8.55;;;20.00;99.90;;;;;;5064871;28;20044;-75
2021/07/23 10:14:54;;;;;;;10.93;8.20;;;20.10;99.90;;;;;;5064587;28;20040;-74
2021/07/23 10:17:20;;;;;;;8.88;7.30;;;20.20;99.90;;;;;;5062369;28;20079;-74
2021/07/23 10:19:46;;;;;;;9.13;8.13;;;20.30;99.90;;;;;;5063948;28;20046;-74
2021/07/23 10:22:13;;;;;;;10.95;7.65;;;20.50;99.90;;;;;;5062434;28;20401;-74
2021/07/23 10:24:41;;;;;;;8.45;6.90;;;20.50;99.90;;;;;;5063982;28;20040;-75
2021/07/23 10:27:09;;;;;;;11.55;6.53;;;20.60;99.90;;;;;;5061172;28;20086;-74
2021/07/23 10:29:45;;;;;;;7.03;6.32;;;20.50;99.90;;;;;;5062583;28;20029;-74
2021/07/23 10:32:23;;;;;;;8.35;6.28;;;20.60;99.90;;;;;;5063744;28;20045;-74
2021/07/23 10:34:53;;;;;;;6.63;5.68;;;20.60;99.40;;;;;;5062051;28;21235;-75
2021/07/23 10:37:30;;;;;;;11.95;6.28;;;20.80;99.70;;;;;;5060863;28;20052;-75
2021/07/23 10:40:08;;;;;;;6.72;6.13;;;20.90;98.60;;;;;;5064222;28;20064;-74
2021/07/23 10:42:36;;;;;;;6.70;5.97;;;21.10;99.90;;;;;;5065411;28;20036;-74
2021/07/23 10:45:06;;;;;;;8.40;6.05;;;21.30;99.70;;;;;;5067571;28;20398;-74
2021/07/23 10:47:43;;;;;;;6.88;5.30;;;21.30;99.50;;;;;;5063893;28;20048;-75
2021/07/23 10:50:33;;;;;;;7.72;5.43;;;21.40;99.50;;;;;;5059824;28;20040;-75
2021/07/23 10:53:27;;;;;;;8.30;5.50;;;21.30;98.30;;;;;;5065560;28;20044;-74
2021/07/23 10:55:53;;;;;;;7.32;5.72;;;21.10;99.20;;;;;;5065710;28;20482;-74
2021/07/23 10:58:18;;;;;;;8.50;5.88;;;21.00;98.70;;;;;;5064177;28;20040;-74
2021/07/23 11:00:47;;;;;;;6.40;5.80;;;21.00;98.70;;;;;;5060711;28;20094;-74
2021/07/23 11:03:39;;;;;;;8.85;5.88;;;21.00;98.90;;;;;;5062868;28;20037;-74
2021/07/23 11:06:35;;;;;;;8.23;5.75;;;21.10;99.50;;;;;;5065524;28;20029;-75
2021/07/23 11:09:04;;;;;;;6.80;5.43;;;21.30;99.30;;;;;;5051585;28;20091;-74
2021/07/23 11:11:30;;;;;;;10.38;6.68;;;21.30;98.90;;;;;;5066370;28;20490;-74
2021/07/23 11:14:13;;;;;;;8.73;5.95;;;21.40;99.10;;;;;;5068254;28;20138;-75
2021/07/23 11:16:38;;;;;;;7.55;5.78;;;21.40;99.50;;;;;;5063724;28;20584;-75
2021/07/23 11:19:04;;;;;;;9.02;5.55;;;21.30;98.30;;;;;;5063751;28;20053;-75
2021/07/23 11:21:35;;;;;;;6.15;5.57;;;21.30;98.60;;;;;;5064634;28;20048;-74
2021/07/23 11:24:07;;;;;;;9.32;5.47;;;21.40;98.00;;;;;;5066612;28;20044;-75
2021/07/23 11:26:33;;;;;;;7.97;6.45;;;21.60;98.40;;;;;;5067329;28;20394;-75
2021/07/23 11:28:59;;;;;;;5.85;4.78;;;21.70;97.40;;;;;;5066253;28;20052;-74
2021/07/23 11:31:34;;;;;;;17.58;5.93;;;21.90;98.20;;;;;;5063412;28;20410;-74
2021/07/23 11:34:23;;;;;;;5.72;4.30;;;22.10;97.80;;;;;;5066867;28;20086;-75
2021/07/23 11:36:53;;;;;;;7.18;4.40;;;22.20;95.20;;;;;;5063847;28;20040;-75
2021/07/23 11:39:24;;;;;;;8.93;5.00;;;22.40;95.70;;;;;;5064845;28;20064;-75
2021/07/23 11:42:03;;;;;;;5.85;4.78;;;22.50;95.70;;;;;;5066830;28;20032;-75
2021/07/23 11:44:29;;;;;;;6.95;4.63;;;22.50;95.10;;;;;;5063763;28;20045;-74
2021/07/23 11:46:55;;;;;;;7.85;4.07;;;22.60;94.40;;;;;;5060032;28;20506;-83
2021/07/23 11:49:22;;;;;;;6.88;4.97;;;22.60;94.70;;;;;;5068683;28;20041;-84
2021/07/23 11:51:48;;;;;;;7.82;4.68;;;22.40;94.40;;;;;;5067281;28;20028;-84
2021/07/23 11:54:20;;;;;;;8.77;3.88;;;22.30;94.80;;;;;;5068577;28;20040;-83
2021/07/23 11:56:46;;;;;;;16.00;5.28;;;22.10;94.80;;;;;;5068204;28;20036;-87
2021/07/23 11:59:13;;;;;;;4.63;3.90;;;22.00;95.40;;;;;;5066708;28;20077;-88
2021/07/23 12:01:40;;;;;;;4.35;3.78;;;21.60;95.30;;;;;;5065308;28;20044;-81
2021/07/23 12:04:08;;;;;;;4.88;3.83;;;21.70;95.70;;;;;;5065619;28;20033;-82
2021/07/23 12:06:38;;;;;;;9.10;3.75;;;21.60;96.80;;;;;;5065948;28;20043;-75
2021/07/23 12:09:05;;;;;;;3.50;3.20;;;21.60;96.60;;;;;;5065175;28;20815;-75
2021/07/23 12:11:32;;;;;;;3.60;3.28;;;21.70;97.50;;;;;;5063021;28;20111;-75
2021/07/23 12:14:04;;;;;;;5.50;3.00;;;21.80;96.70;;;;;;5066729;28;20036;-75
2021/07/23 12:16:30;;;;;;;4.20;2.90;;;21.80;96.30;;;;;;5064467;28;20048;-75
2021/07/23 12:19:00;;;;;;;3.70;3.03;;;21.80;95.80;;;;;;5063878;28;20040;-75
2021/07/23 12:21:27;;;;;;;4.45;3.88;;;21.80;96.30;;;;;;5063694;28;20044;-75
2021/07/23 12:24:01;;;;;;;21.65;4.90;;;21.90;97.10;;;;;;5065345;28;20078;-74
2021/07/23 12:26:31;;;;;;;6.65;3.17;;;22.00;98.00;;;;;;5066582;28;20149;-76
2021/07/23 12:28:58;;;;;;;4.68;3.40;;;22.10;95.60;;;;;;5059124;28;20074;-76
2021/07/23 12:31:25;;;;;;;7.15;3.38;;;22.20;95.00;;;;;;5066659;28;20067;-76
2021/07/23 12:34:06;;;;;;;6.68;3.20;;;22.30;96.30;;;;;;5051300;28;20067;-76
2021/07/23 12:36:44;;;;;;;3.58;3.28;;;22.30;96.70;;;;;;5047358;28;20041;-76
2021/07/23 12:39:10;;;;;;;5.20;3.15;;;22.40;96.20;;;;;;5053588;28;20040;-76
2021/07/23 12:41:36;;;;;;;6.45;3.60;;;22.30;96.20;;;;;;5068615;28;20036;-76